createdAt,value
2022-11-24T00:45:38.142Z,60.40
2022-11-24T00:48:07.855Z,61.10
2022-11-24T00:50:37.258Z,61.30
2022-11-24T00:53:06.658Z,61.00
2022-11-24T00:55:36.029Z,61.20
2022-11-24T00:58:05.159Z,62.30
2022-11-24T01:48:17.112Z,60.00
2022-11-24T01:50:47.834Z,60.40
2022-11-24T01:53:16.904Z,59.90
2022-11-24T01:55:45.766Z,60.30
2022-11-24T01:58:24.646Z,61.10
2022-11-24T02:47:46.021Z,59.20
2022-11-24T02:50:15.050Z,59.20
2022-11-24T02:52:44.053Z,59.60
2022-11-24T02:55:13.127Z,60.00
2022-11-24T02:57:41.928Z,59.20
2022-11-24T03:00:12.614Z,60.30
2022-11-24T03:47:08.972Z,59.40
2022-11-24T03:49:38.282Z,60.50
2022-11-24T03:52:10.923Z,60.10
2022-11-24T03:54:39.813Z,60.30
2022-11-24T03:57:11.178Z,60.40
2022-11-24T03:59:42.472Z,61.10
2022-11-24T04:46:25.316Z,58.90
2022-11-24T04:48:54.172Z,59.50
2022-11-24T04:51:48.492Z,59.00
2022-11-24T04:54:17.347Z,59.40
2022-11-24T04:56:46.250Z,59.90
2022-11-24T04:59:16.079Z,60.90
2022-11-24T05:30:17.825Z,58.90
2022-11-24T05:32:46.245Z,59.10
2022-11-24T05:35:15.176Z,59.60
2022-11-24T05:37:47.652Z,59.60
2022-11-24T05:40:16.413Z,62.00
2022-11-24T05:42:48.008Z,59.60
2022-11-24T05:45:21.351Z,59.50
2022-11-24T05:47:51.394Z,59.50
2022-11-24T05:50:23.258Z,59.50
2022-11-24T05:52:52.601Z,59.70
2022-11-24T05:55:21.726Z,61.00
2022-11-24T05:57:50.925Z,60.50
2022-11-24T06:00:22.623Z,59.80
2022-11-24T06:02:51.688Z,59.20
2022-11-24T06:05:20.497Z,59.50
2022-11-24T06:07:49.259Z,61.00
2022-11-24T06:10:21.962Z,59.80
2022-11-24T06:12:52.776Z,59.40
2022-11-24T06:15:23.823Z,60.70
2022-11-24T06:17:59.684Z,61.30
2022-11-24T06:20:32.612Z,60.70
2022-11-24T06:23:04.938Z,60.00
2022-11-24T06:25:35.977Z,60.70
2022-11-24T06:28:06.890Z,63.10
2022-11-24T06:30:39.795Z,60.00
2022-11-24T06:33:08.650Z,60.50
2022-11-24T06:35:38.535Z,62.80
2022-11-24T06:38:08.100Z,62.60
2022-11-24T06:40:37.021Z,61.30
2022-11-24T06:43:06.248Z,61.00
2022-11-24T06:45:36.265Z,61.90
2022-11-24T06:48:05.718Z,59.80
2022-11-24T06:50:34.955Z,58.60
2022-11-24T06:53:03.969Z,59.60
2022-11-24T06:55:34.645Z,60.20
2022-11-24T06:58:03.911Z,60.00
2022-11-24T07:00:33.173Z,59.40
2022-11-24T07:03:07.210Z,56.30
2022-11-24T07:05:36.070Z,55.20
2022-11-24T07:08:05.033Z,53.90
2022-11-24T07:10:39.299Z,53.50
2022-11-24T07:13:15.248Z,53.90
2022-11-24T07:15:44.595Z,55.40
2022-11-24T07:52:46.978Z,54.30
2022-11-24T07:55:33.709Z,55.00
2022-11-24T07:58:03.435Z,54.30
2022-11-24T08:00:31.844Z,55.30
2022-11-24T08:03:00.283Z,55.40
2022-11-24T08:05:28.652Z,55.50
2022-11-24T08:07:56.978Z,55.60
2022-11-24T08:10:25.280Z,55.70
2022-11-24T08:12:53.656Z,55.80
2022-11-24T08:15:23.316Z,55.90
2022-11-24T08:17:51.656Z,56.00
2022-11-24T08:20:20.288Z,56.00
2022-11-24T08:22:48.506Z,55.80
2022-11-24T08:25:18.443Z,56.10
2022-11-24T08:27:46.817Z,55.90
2022-11-24T08:30:15.934Z,56.00
2022-11-24T08:32:45.654Z,55.90
2022-11-24T08:35:14.641Z,56.10
2022-11-24T08:37:43.228Z,56.30
2022-11-24T08:40:13.653Z,56.30
2022-11-24T08:42:41.930Z,56.40
2022-11-24T08:45:20.593Z,57.10
2022-11-24T08:47:55.115Z,59.30
2022-11-24T08:50:23.969Z,61.60
2022-11-24T08:52:53.559Z,59.40
2022-11-24T08:55:22.322Z,58.50
2022-11-24T08:57:50.586Z,58.50
2022-11-24T09:00:22.482Z,58.50
2022-11-24T09:02:59.672Z,58.30
2022-11-24T09:08:16.239Z,57.90
2022-11-24T09:10:44.521Z,57.50
2022-11-24T09:13:14.402Z,57.00
2022-11-24T09:15:42.705Z,56.70
2022-11-24T09:18:12.342Z,56.90
2022-11-24T09:20:40.728Z,57.00
2022-11-24T09:23:09.069Z,57.90
2022-11-24T09:25:37.461Z,57.60
2022-11-24T09:28:06.035Z,59.50
2022-11-24T09:30:34.389Z,58.10
2022-11-24T09:33:02.775Z,57.90
2022-11-24T09:35:32.432Z,58.40
2022-11-24T09:38:00.705Z,57.90
2022-11-24T09:40:29.004Z,57.90
2022-11-24T09:43:04.155Z,58.20
2022-11-24T09:48:37.547Z,61.10
2022-11-24T09:51:11.379Z,70.00
2022-11-24T09:53:45.273Z,69.20
2022-11-24T09:56:21.891Z,68.10
2022-11-24T09:58:52.595Z,68.00
2022-11-24T10:01:25.214Z,67.40
2022-11-24T10:03:54.865Z,67.30
2022-11-24T10:06:27.214Z,67.30
2022-11-24T10:09:33.243Z,67.20
2022-11-24T10:12:17.256Z,66.70
2022-11-24T10:15:21.688Z,66.60
2022-11-24T10:18:25.086Z,65.50
2022-11-24T10:21:04.873Z,65.60
2022-11-24T10:23:56.214Z,64.70
2022-11-24T10:26:36.108Z,65.60
2022-11-24T10:29:19.931Z,65.50
2022-11-24T10:31:51.078Z,66.00
2022-11-24T10:34:22.200Z,66.00
2022-11-24T10:36:59.026Z,65.40
2022-11-24T10:39:36.613Z,65.20
2022-11-24T10:42:15.141Z,65.80
2022-11-24T10:44:44.983Z,66.00
2022-11-24T10:47:22.558Z,66.10
2022-11-24T10:49:58.013Z,66.10
2022-11-24T10:52:27.759Z,66.30
2022-11-24T10:54:59.989Z,66.60
2022-11-24T10:57:34.300Z,67.20
2022-11-24T11:00:05.607Z,65.90
2022-11-24T11:02:38.609Z,66.60
2022-11-24T11:05:42.177Z,68.90
2022-11-24T11:08:23.975Z,70.60
2022-11-24T11:11:22.003Z,72.70
2022-11-24T11:14:01.491Z,72.10
2022-11-24T11:16:37.111Z,71.80
2022-11-24T11:19:26.153Z,73.00
2022-11-24T11:22:03.332Z,74.20
2022-11-24T11:24:31.966Z,76.10
2022-11-24T11:27:18.028Z,78.40
2022-11-24T11:35:26.250Z,79.10
2022-11-24T11:37:56.113Z,79.40
2022-11-24T11:40:30.398Z,82.40
2022-11-24T11:43:05.806Z,82.40
2022-11-24T11:45:37.870Z,82.30
2022-11-24T11:48:28.346Z,84.00
2022-11-24T11:54:04.847Z,79.60
2022-11-24T11:56:40.251Z,79.50
2022-11-24T11:59:42.969Z,80.00
2022-11-24T12:02:48.559Z,81.10
2022-11-24T12:05:31.329Z,79.10
2022-11-24T12:08:28.926Z,80.10
2022-11-24T12:11:09.187Z,79.90
2022-11-24T12:13:54.937Z,81.80
2022-11-24T12:16:40.381Z,82.20
2022-11-24T12:19:37.932Z,81.10
2022-11-24T12:22:16.545Z,82.20
2022-11-24T12:24:55.801Z,85.60
2022-11-24T12:27:40.639Z,85.10
2022-11-24T12:30:15.165Z,83.00
2022-11-24T12:33:15.362Z,82.70
2022-11-24T12:35:46.421Z,84.50
2022-11-24T12:38:42.888Z,83.80
2022-11-24T12:41:46.080Z,82.20
2022-11-24T12:44:36.382Z,79.50
2022-11-24T12:47:14.960Z,77.80
2022-11-24T12:50:11.582Z,77.20
2022-11-24T12:52:47.941Z,77.00
2022-11-24T12:55:21.978Z,76.80
2022-11-24T12:57:59.780Z,76.30
2022-11-24T13:00:36.642Z,76.10
2022-11-24T13:03:22.055Z,76.00
2022-11-24T13:05:58.771Z,75.70
2022-11-24T13:08:28.892Z,75.60
2022-11-24T13:11:38.938Z,75.70
2022-11-24T13:14:13.566Z,74.40
2022-11-24T13:19:44.378Z,74.30
2022-11-24T13:22:23.700Z,74.80
2022-11-24T13:25:16.019Z,74.90
2022-11-24T13:27:48.177Z,75.00
2022-11-24T13:30:58.461Z,75.00
2022-11-24T13:33:38.538Z,74.80
2022-11-24T13:36:48.367Z,74.50
2022-11-24T13:39:22.645Z,74.70
2022-11-24T13:42:09.360Z,74.60
2022-11-24T13:44:55.429Z,75.20
2022-11-24T13:47:41.137Z,75.40
2022-11-24T13:50:25.431Z,75.50
2022-11-24T13:53:07.363Z,75.60
2022-11-24T13:55:40.808Z,75.70
2022-11-24T13:58:32.779Z,75.50
2022-11-24T14:01:19.090Z,75.40
2022-11-24T14:07:05.510Z,75.30
2022-11-24T14:09:43.350Z,75.40
2022-11-24T14:12:19.328Z,75.40
2022-11-24T14:14:49.551Z,75.10
2022-11-24T14:17:23.015Z,75.30
2022-11-24T14:19:54.029Z,75.20
2022-11-24T14:22:26.989Z,75.40
2022-11-24T14:24:57.602Z,75.10
2022-11-24T14:27:33.651Z,75.00
2022-11-24T14:30:05.516Z,74.90
2022-11-24T14:32:34.010Z,74.90
2022-11-24T14:35:02.529Z,75.00
2022-11-24T14:37:31.576Z,74.90
2022-11-24T14:39:59.883Z,74.60
2022-11-24T14:42:33.257Z,74.30
2022-11-24T14:45:03.826Z,73.80
2022-11-24T14:47:36.121Z,73.90
2022-11-24T14:50:15.002Z,72.20
2022-11-24T14:52:48.573Z,72.40
2022-11-24T14:55:29.187Z,72.20
2022-11-24T14:57:59.934Z,72.50
2022-11-24T15:00:31.552Z,72.40
2022-11-24T15:03:17.285Z,72.30
2022-11-24T15:05:56.335Z,72.70
2022-11-24T15:08:26.526Z,71.70
2022-11-24T15:11:03.132Z,71.30
2022-11-24T15:13:38.260Z,71.20
2022-11-24T15:16:13.055Z,71.80
2022-11-24T15:18:44.476Z,72.10
2022-11-24T15:21:18.855Z,71.50
2022-11-24T15:24:08.453Z,70.90
2022-11-24T15:26:41.715Z,75.70
2022-11-24T15:29:12.976Z,73.50
2022-11-24T15:31:44.220Z,75.50
2022-11-24T15:34:16.121Z,74.60
2022-11-24T15:36:44.400Z,78.00
2022-11-24T15:39:12.875Z,74.70
2022-11-24T15:41:42.981Z,72.50
2022-11-24T15:44:12.684Z,72.20
2022-11-24T15:46:40.999Z,71.30
2022-11-24T15:49:09.429Z,70.50
2022-11-24T15:51:43.534Z,70.80
2022-11-24T15:54:16.884Z,70.40
2022-11-24T15:56:45.376Z,70.50
2022-11-24T15:59:20.335Z,70.70
2022-11-24T16:01:49.776Z,70.90
2022-11-24T16:04:18.968Z,70.60
2022-11-24T16:06:47.965Z,70.90
2022-11-24T16:09:17.624Z,71.30
2022-11-24T16:11:46.345Z,70.50
2022-11-24T16:14:16.259Z,70.40
2022-11-24T16:16:46.109Z,70.70
2022-11-24T16:19:16.164Z,70.80
2022-11-24T16:21:44.485Z,70.20
2022-11-24T16:24:16.008Z,70.30
2022-11-24T16:26:44.404Z,70.40
2022-11-24T16:29:12.944Z,70.20
2022-11-24T16:31:43.488Z,70.30
2022-11-24T16:34:11.956Z,69.70
2022-11-24T16:36:40.316Z,69.60
2022-11-24T16:39:08.631Z,69.20
2022-11-24T16:41:36.943Z,69.10
2022-11-24T16:44:05.861Z,68.90
2022-11-24T16:46:34.261Z,68.80
2022-11-24T16:49:04.481Z,69.20
2022-11-24T16:51:36.820Z,68.50
2022-11-24T16:54:05.531Z,68.80
2022-11-24T16:56:37.767Z,69.00
2022-11-24T16:59:11.296Z,69.10
2022-11-24T17:01:40.529Z,69.30
2022-11-24T17:04:12.818Z,69.50
2022-11-24T17:06:41.743Z,69.50
2022-11-24T17:09:12.064Z,69.90
2022-11-24T17:11:42.279Z,69.90
2022-11-24T17:14:12.867Z,70.10
2022-11-24T17:16:42.829Z,70.40
2022-11-24T17:19:14.076Z,70.40
2022-11-24T17:21:43.646Z,70.40
2022-11-24T17:24:17.633Z,70.60
2022-11-24T17:26:49.122Z,71.20
2022-11-24T17:29:19.335Z,71.10
2022-11-24T17:31:50.051Z,71.00
2022-11-24T17:34:21.901Z,71.10
2022-11-24T17:36:51.935Z,71.20
2022-11-24T17:39:25.298Z,71.70
2022-11-24T17:41:54.705Z,72.30
2022-11-24T17:44:24.445Z,72.10
2022-11-24T17:46:54.071Z,71.70
2022-11-24T17:49:25.994Z,72.40
2022-11-24T17:51:56.014Z,72.40
2022-11-24T17:57:17.145Z,74.60
2022-11-24T17:59:51.336Z,77.70
2022-11-24T18:02:20.173Z,77.60
2022-11-24T18:04:50.095Z,78.00
2022-11-24T18:07:21.302Z,78.10
2022-11-24T18:09:49.638Z,77.80
2022-11-24T18:12:17.990Z,77.80
2022-11-24T18:14:47.209Z,77.40
2022-11-24T18:17:15.553Z,77.60
2022-11-24T18:19:44.014Z,78.40
2022-11-24T18:22:13.721Z,78.40
2022-11-24T18:24:43.160Z,78.70
2022-11-24T18:27:13.081Z,79.00
2022-11-24T18:29:41.358Z,79.90
2022-11-24T18:32:10.013Z,79.30
2022-11-24T18:34:39.187Z,79.00
2022-11-24T18:37:08.666Z,78.70
2022-11-24T18:39:42.585Z,77.30
2022-11-24T18:42:11.722Z,77.80
2022-11-24T18:44:42.337Z,79.60
2022-11-24T18:47:11.199Z,82.20
2022-11-24T18:49:39.836Z,83.10
2022-11-24T18:52:08.876Z,81.40
2022-11-24T18:54:39.369Z,78.80
2022-11-24T18:57:08.605Z,77.40
2022-11-24T18:59:37.331Z,76.80
2022-11-24T19:02:06.115Z,77.10
2022-11-24T19:04:35.092Z,78.10
2022-11-24T19:07:03.967Z,80.60
2022-11-24T19:09:32.828Z,84.10
2022-11-24T19:12:04.126Z,81.00
2022-11-24T19:14:33.212Z,80.90
2022-11-24T19:17:03.381Z,80.20
2022-11-24T19:19:36.410Z,79.10
2022-11-24T19:22:05.755Z,79.50
2022-11-24T19:24:34.864Z,79.00
2022-11-24T19:27:06.491Z,78.70
2022-11-24T19:29:42.919Z,80.40
2022-11-24T19:32:15.442Z,79.60
2022-11-24T19:34:45.499Z,78.40
2022-11-24T19:37:14.556Z,77.20
2022-11-24T19:39:43.393Z,77.60
2022-11-24T19:42:15.298Z,77.70
2022-11-24T19:44:44.475Z,78.20
2022-11-24T19:47:13.318Z,77.20
2022-11-24T19:49:42.833Z,77.40
2022-11-24T19:52:11.901Z,77.90
2022-11-24T19:54:40.694Z,79.20
2022-11-24T19:57:09.737Z,79.40
2022-11-24T19:59:40.553Z,78.80
2022-11-24T20:02:11.877Z,79.80
2022-11-24T20:04:43.733Z,76.90
2022-11-24T20:07:14.879Z,77.00
2022-11-24T20:09:43.998Z,77.20
2022-11-24T20:12:13.034Z,78.00
2022-11-24T20:14:43.391Z,76.40
2022-11-24T20:17:14.149Z,76.60
2022-11-24T20:19:43.472Z,74.80
2022-11-24T20:22:12.200Z,75.40
2022-11-24T20:24:41.718Z,76.00
2022-11-24T20:27:10.338Z,76.50
2022-11-24T20:29:45.275Z,75.10
2022-11-24T20:32:19.780Z,77.20
2022-11-24T20:34:49.325Z,76.10
2022-11-24T20:37:18.421Z,77.40
2022-11-24T20:39:47.446Z,76.40
2022-11-24T20:42:16.336Z,76.00
2022-11-24T20:44:45.159Z,74.80
2022-11-24T20:47:15.325Z,74.50
2022-11-24T20:49:44.548Z,72.80
2022-11-24T20:52:13.555Z,71.40
2022-11-24T20:54:42.534Z,70.80
2022-11-24T20:57:11.156Z,69.00
2022-11-24T20:59:40.204Z,68.80
2022-11-24T21:02:10.813Z,68.00
2022-11-24T21:04:40.960Z,69.20
2022-11-24T21:07:13.417Z,69.50
2022-11-24T21:09:42.210Z,69.40
2022-11-24T21:12:11.310Z,69.30
2022-11-24T21:14:40.844Z,69.90
2022-11-24T21:17:11.174Z,69.80
2022-11-24T21:19:41.655Z,70.50
2022-11-24T21:22:11.665Z,72.30
2022-11-24T21:24:41.316Z,71.00
2022-11-24T21:27:11.236Z,73.30
2022-11-24T21:29:40.601Z,70.90
2022-11-24T21:32:10.489Z,71.80
2022-11-24T21:34:40.632Z,72.40
2022-11-24T21:37:09.279Z,71.50
2022-11-24T21:39:37.772Z,71.10
2022-11-24T21:42:07.029Z,71.60
2022-11-24T21:44:35.886Z,71.80
2022-11-24T21:47:04.765Z,72.00
2022-11-24T21:49:33.214Z,72.50
2022-11-24T21:52:03.131Z,72.30
2022-11-24T21:54:31.556Z,72.10
2022-11-24T21:57:00.313Z,72.30
2022-11-24T21:59:28.815Z,72.40
2022-11-24T22:01:57.736Z,72.40
2022-11-24T22:04:26.732Z,72.00
2022-11-24T22:06:55.433Z,72.50
2022-11-24T22:09:25.354Z,72.90
2022-11-24T22:11:54.697Z,72.20
2022-11-24T22:14:23.498Z,72.60
2022-11-24T22:17:06.069Z,72.20
2022-11-24T22:19:34.997Z,72.30
2022-11-24T22:22:03.563Z,71.70
2022-11-24T22:24:33.592Z,72.50
2022-11-24T22:27:02.973Z,72.50
2022-11-24T22:29:31.364Z,71.80
2022-11-24T22:32:00.004Z,71.90
2022-11-24T22:34:28.431Z,72.60
2022-11-24T22:36:56.703Z,72.70
2022-11-24T22:39:25.046Z,73.00
2022-11-24T22:41:55.442Z,72.60
2022-11-24T22:44:23.770Z,73.30
2022-11-24T22:46:52.226Z,74.00
2022-11-24T22:49:20.504Z,74.50
2022-11-24T22:51:48.934Z,75.10
2022-11-24T22:54:17.190Z,74.90
2022-11-24T22:56:45.479Z,74.90
2022-11-24T22:59:15.146Z,75.10
2022-11-24T23:01:43.494Z,75.20
2022-11-24T23:04:12.099Z,75.20
2022-11-24T23:06:40.674Z,75.40
2022-11-24T23:09:11.775Z,75.30
2022-11-24T23:11:42.280Z,76.00
2022-11-24T23:14:16.530Z,75.70
2022-11-24T23:46:03.883Z,78.60
2022-11-24T23:48:32.561Z,78.80
2022-11-24T23:51:06.136Z,79.80
2022-11-24T23:53:35.633Z,80.20
2022-11-24T23:56:04.745Z,80.70
2022-11-24T23:58:34.107Z,77.80
